createdAt,value
2019-01-21T00:02:04.505Z,25.10
2019-01-21T00:04:36.520Z,25.53
2019-01-21T00:07:09.102Z,25.30
2019-01-21T00:09:40.610Z,27.97
2019-01-21T00:12:11.990Z,25.83
2019-01-21T00:14:43.824Z,26.87
2019-01-21T00:17:28.244Z,23.70
2019-01-21T00:19:59.685Z,23.73
2019-01-21T00:22:33.580Z,23.77
2019-01-21T00:25:05.320Z,22.63
2019-01-21T00:27:37.069Z,23.40
2019-01-21T00:30:09.803Z,21.80
2019-01-21T00:32:41.697Z,21.47
2019-01-21T00:35:13.203Z,22.10
2019-01-21T00:37:44.941Z,20.40
2019-01-21T00:40:16.904Z,20.43
2019-01-21T00:42:48.279Z,21.27
2019-01-21T00:45:19.991Z,21.93
2019-01-21T00:47:57.677Z,20.50
2019-01-21T00:50:30.109Z,21.13
2019-01-21T00:53:03.817Z,20.27
2019-01-21T00:55:35.812Z,20.23
2019-01-21T00:58:09.142Z,21.50
2019-01-21T01:00:42.108Z,21.07
2019-01-21T01:03:13.952Z,21.73
2019-01-21T01:05:46.379Z,21.47
2019-01-21T01:08:17.984Z,22.43
2019-01-21T01:10:49.593Z,22.53
2019-01-21T01:13:21.767Z,22.30
2019-01-21T01:15:53.599Z,20.07
2019-01-21T01:18:24.980Z,19.93
2019-01-21T01:20:56.673Z,21.27
2019-01-21T01:23:28.299Z,21.23
2019-01-21T01:25:59.880Z,21.87
2019-01-21T01:28:31.618Z,21.80
2019-01-21T01:31:03.697Z,19.77
2019-01-21T01:33:35.078Z,19.77
2019-01-21T01:36:07.054Z,21.27
2019-01-21T01:38:38.420Z,20.83
2019-01-21T01:41:12.836Z,20.37
2019-01-21T01:43:44.823Z,18.70
2019-01-21T01:46:26.351Z,19.73
2019-01-21T01:48:57.908Z,26.30
2019-01-21T01:51:29.485Z,26.13
2019-01-21T01:54:01.171Z,28.63
2019-01-21T01:56:33.365Z,24.73
2019-01-21T01:59:05.307Z,22.40
2019-01-21T02:01:37.261Z,20.57
2019-01-21T02:04:09.249Z,18.37
2019-01-21T02:06:41.959Z,18.07
2019-01-21T02:09:13.805Z,16.83
2019-01-21T02:11:45.854Z,17.10
2019-01-21T02:14:18.844Z,17.67
2019-01-21T02:16:51.090Z,17.03
2019-01-21T02:19:24.936Z,15.90
2019-01-21T02:21:58.740Z,17.53
2019-01-21T02:24:35.390Z,15.67
2019-01-21T02:27:12.353Z,17.17
2019-01-21T02:30:20.633Z,19.03
2019-01-21T02:33:26.027Z,16.77
2019-01-21T02:36:35.655Z,18.03
2019-01-21T02:39:48.117Z,15.97
2019-01-21T02:42:57.736Z,15.40
2019-01-21T02:45:41.912Z,15.40
2019-01-21T02:48:25.865Z,13.27
2019-01-21T02:51:23.985Z,12.90
2019-01-21T02:54:17.304Z,15.87
2019-01-21T02:57:15.164Z,15.37
2019-01-21T03:00:14.146Z,16.07
2019-01-21T03:03:23.183Z,14.83
2019-01-21T03:06:16.751Z,15.37
2019-01-21T03:09:32.281Z,15.53
2019-01-21T03:12:56.733Z,14.30
2019-01-21T03:15:40.352Z,13.40
2019-01-21T03:18:46.203Z,13.27
2019-01-21T03:22:02.403Z,14.73
2019-01-21T03:25:16.951Z,14.50
2019-01-21T03:28:14.452Z,13.90
2019-01-21T03:31:41.060Z,15.13
2019-01-21T03:34:43.588Z,13.07
2019-01-21T03:37:40.723Z,12.40
2019-01-21T03:40:39.057Z,13.03
2019-01-21T03:43:48.594Z,13.03
2019-01-21T03:46:57.613Z,12.50
2019-01-21T03:49:45.743Z,12.63
2019-01-21T03:52:47.922Z,13.13
2019-01-21T03:55:20.694Z,12.80
2019-01-21T03:58:28.608Z,13.30
2019-01-21T04:01:49.298Z,12.93
2019-01-21T04:05:00.709Z,13.27
2019-01-21T04:08:16.630Z,13.50
2019-01-21T04:11:18.159Z,13.77
2019-01-21T04:14:38.839Z,12.40
2019-01-21T04:17:44.147Z,10.73
2019-01-21T04:21:08.013Z,11.37
2019-01-21T04:23:53.540Z,11.10
2019-01-21T04:26:49.447Z,11.07
2019-01-21T04:29:59.418Z,11.57
2019-01-21T04:33:09.161Z,10.57
2019-01-21T04:36:36.669Z,11.70
2019-01-21T04:39:33.478Z,10.87
2019-01-21T04:42:33.453Z,11.37
2019-01-21T04:45:27.478Z,11.07
2019-01-21T04:48:17.962Z,10.87
2019-01-21T04:51:04.664Z,11.00
2019-01-21T04:54:08.787Z,10.10
2019-01-21T04:57:31.643Z,10.07
2019-01-21T05:00:44.674Z,10.60
2019-01-21T05:03:44.891Z,12.00
2019-01-21T05:07:02.830Z,12.37
2019-01-21T05:10:18.495Z,12.43
2019-01-21T05:13:22.234Z,12.00
2019-01-21T05:16:36.183Z,11.77
2019-01-21T05:19:41.135Z,11.73
2019-01-21T05:22:34.702Z,11.20
2019-01-21T05:25:53.737Z,10.17
2019-01-21T05:29:18.587Z,11.43
2019-01-21T05:32:17.493Z,9.97
2019-01-21T05:35:45.656Z,11.43
2019-01-21T05:39:06.691Z,10.60
2019-01-21T05:42:02.832Z,9.90
2019-01-21T05:45:15.895Z,9.83
2019-01-21T05:48:20.763Z,10.60
2019-01-21T05:51:40.004Z,10.83
2019-01-21T05:54:52.291Z,10.93
2019-01-21T05:58:04.514Z,10.00
2019-01-21T06:01:07.578Z,10.60
2019-01-21T06:04:06.096Z,10.53
2019-01-21T06:07:05.326Z,10.13
2019-01-21T06:10:01.121Z,11.57
2019-01-21T06:13:01.789Z,11.33
2019-01-21T06:15:49.735Z,10.83
2019-01-21T06:19:01.531Z,13.07
2019-01-21T06:22:44.892Z,12.97
2019-01-21T06:26:06.287Z,12.47
2019-01-21T06:29:39.823Z,10.63
2019-01-21T06:33:04.432Z,11.20
2019-01-21T06:36:11.581Z,11.20
2019-01-21T06:39:27.496Z,10.30
2019-01-21T06:42:48.813Z,11.00
2019-01-21T06:46:16.541Z,11.63
2019-01-21T06:49:37.126Z,11.90
2019-01-21T06:52:52.227Z,9.97
2019-01-21T06:55:57.191Z,12.13
2019-01-21T06:59:04.993Z,13.77
2019-01-21T07:01:51.808Z,13.30
2019-01-21T07:05:01.979Z,12.17
2019-01-21T07:08:18.257Z,11.33
2019-01-21T07:11:18.234Z,12.80
2019-01-21T07:14:17.168Z,15.20
2019-01-21T07:17:18.449Z,12.37
2019-01-21T07:20:15.309Z,13.43
2019-01-21T07:23:20.730Z,13.10
2019-01-21T07:26:30.878Z,13.20
2019-01-21T07:29:34.890Z,13.53
2019-01-21T07:32:31.808Z,10.53
2019-01-21T07:36:05.959Z,13.40
2019-01-21T07:39:21.751Z,13.67
2019-01-21T07:42:23.195Z,15.83
2019-01-21T07:45:21.604Z,13.00
2019-01-21T07:48:14.364Z,14.63
2019-01-21T07:51:12.303Z,13.40
2019-01-21T07:54:34.133Z,11.73
2019-01-21T07:57:33.898Z,13.30
2019-01-21T08:00:55.452Z,14.47
2019-01-21T08:04:22.753Z,13.00
2019-01-21T08:07:25.914Z,11.57
2019-01-21T08:10:41.670Z,12.30
2019-01-21T08:13:45.783Z,11.97
2019-01-21T08:17:02.655Z,13.50
2019-01-21T08:20:15.341Z,13.03
2019-01-21T08:23:23.199Z,12.90
2019-01-21T08:26:22.901Z,12.27
2019-01-21T08:29:25.779Z,14.87
2019-01-21T08:32:17.397Z,13.50
2019-01-21T08:35:32.515Z,13.67
2019-01-21T08:38:43.878Z,14.73
2019-01-21T08:41:52.144Z,13.17
2019-01-21T08:45:11.149Z,13.17
2019-01-21T08:48:07.636Z,12.50
2019-01-21T08:51:33.078Z,12.43
2019-01-21T08:54:24.313Z,14.93
2019-01-21T08:57:28.435Z,16.00
2019-01-21T09:00:59.222Z,14.90
2019-01-21T09:04:22.749Z,17.00
2019-01-21T09:07:44.729Z,19.13
2019-01-21T09:10:40.954Z,11.57
2019-01-21T09:13:43.589Z,18.27
2019-01-21T09:16:36.389Z,16.33
2019-01-21T09:19:19.819Z,13.47
2019-01-21T09:22:20.523Z,14.57
2019-01-21T09:25:39.189Z,12.53
2019-01-21T09:28:39.453Z,16.13
2019-01-21T09:31:55.076Z,16.40
2019-01-21T09:35:22.943Z,14.77
2019-01-21T09:42:00.554Z,16.37
2019-01-21T09:44:58.483Z,14.47
2019-01-21T09:47:29.221Z,13.90
2019-01-21T09:50:00.891Z,14.30
2019-01-21T09:52:32.611Z,13.33
2019-01-21T09:55:05.532Z,12.90
2019-01-21T09:57:38.607Z,13.10
2019-01-21T10:00:16.152Z,12.73
2019-01-21T10:02:50.062Z,13.80
2019-01-21T10:05:22.523Z,12.47
2019-01-21T10:08:06.126Z,13.47
2019-01-21T10:11:15.404Z,11.67
2019-01-21T10:14:27.144Z,11.87
2019-01-21T10:17:33.524Z,13.37
2019-01-21T10:20:41.433Z,13.50
2019-01-21T10:23:28.279Z,13.03
2019-01-21T10:26:25.133Z,13.43
2019-01-21T10:29:16.713Z,13.70
2019-01-21T10:32:24.472Z,12.73
2019-01-21T10:35:23.686Z,13.10
2019-01-21T10:38:55.123Z,13.03
2019-01-21T10:41:45.079Z,13.77
2019-01-21T10:44:43.730Z,13.80
2019-01-21T10:47:39.914Z,13.60
2019-01-21T10:50:50.608Z,12.87
2019-01-21T10:53:59.560Z,13.37
2019-01-21T10:56:50.107Z,12.57
2019-01-21T10:59:59.822Z,11.83
2019-01-21T11:03:03.394Z,12.23
2019-01-21T11:05:52.501Z,10.97
2019-01-21T11:08:50.025Z,11.87
2019-01-21T11:12:18.161Z,11.33
2019-01-21T11:14:58.520Z,10.97
2019-01-21T11:18:04.991Z,11.00
2019-01-21T11:21:17.476Z,11.63
2019-01-21T11:24:44.830Z,10.57
2019-01-21T11:27:50.017Z,11.57
2019-01-21T11:30:46.424Z,10.90
2019-01-21T11:33:59.548Z,10.83
2019-01-21T11:37:14.756Z,10.50
2019-01-21T11:40:40.771Z,11.07
2019-01-21T11:43:45.100Z,11.33
2019-01-21T11:46:50.529Z,11.20
2019-01-21T11:49:40.209Z,10.57
2019-01-21T11:52:53.832Z,11.37
2019-01-21T11:56:07.128Z,11.33
2019-01-21T11:59:10.227Z,11.40
2019-01-21T12:02:04.334Z,11.67
2019-01-21T12:05:25.633Z,12.70
2019-01-21T12:08:36.484Z,13.57
2019-01-21T12:11:37.274Z,14.47
2019-01-21T12:14:43.579Z,13.33
2019-01-21T12:17:50.416Z,13.73
2019-01-21T12:21:13.904Z,13.87
2019-01-21T12:24:35.713Z,14.13
2019-01-21T12:28:18.411Z,15.10
2019-01-21T12:31:29.837Z,15.57
2019-01-21T12:34:28.342Z,15.80
2019-01-21T12:37:27.696Z,14.87
2019-01-21T12:40:31.932Z,12.87
2019-01-21T12:43:51.262Z,14.03
2019-01-21T12:46:41.479Z,18.07
2019-01-21T12:53:02.694Z,16.07
2019-01-21T12:56:29.079Z,16.73
2019-01-21T23:07:45.697Z,27.73
2019-01-21T23:10:17.127Z,28.97
2019-01-21T23:12:48.703Z,29.80
2019-01-21T23:15:20.696Z,29.27
2019-01-21T23:17:52.354Z,28.20
2019-01-21T23:20:23.619Z,27.57
2019-01-21T23:22:55.042Z,27.50
2019-01-21T23:25:26.885Z,28.60
2019-01-21T23:27:58.697Z,27.77
2019-01-21T23:30:30.373Z,27.53
2019-01-21T23:33:01.832Z,28.70
2019-01-21T23:35:34.266Z,27.30
2019-01-21T23:38:05.997Z,28.30
2019-01-21T23:40:37.663Z,28.97
2019-01-21T23:43:09.344Z,29.17
2019-01-21T23:45:40.857Z,28.83
2019-01-21T23:48:12.659Z,28.70
2019-01-21T23:50:45.638Z,27.57
2019-01-21T23:53:17.188Z,28.73
2019-01-21T23:55:48.804Z,29.10
2019-01-21T23:58:20.754Z,29.07
